createdAt,value
2023-02-15T00:02:00.098Z,36.53
2023-02-15T00:04:33.392Z,31.23
2023-02-15T00:07:04.451Z,22.73
2023-02-15T00:09:35.678Z,22.43
2023-02-15T00:12:07.194Z,16.50
2023-02-15T00:14:38.101Z,22.73
2023-02-15T00:17:08.973Z,28.80
2023-02-15T00:19:41.274Z,22.63
2023-02-15T00:22:12.609Z,30.20
2023-02-15T00:24:43.606Z,27.83
2023-02-15T00:27:14.810Z,26.00
2023-02-15T00:29:45.815Z,26.57
2023-02-15T00:32:16.720Z,22.57
2023-02-15T00:34:47.693Z,23.03
2023-02-15T00:37:18.753Z,24.27
2023-02-15T00:39:50.022Z,22.57
2023-02-15T00:42:20.951Z,26.97
2023-02-15T00:44:52.307Z,21.90
2023-02-15T00:47:23.313Z,23.87
2023-02-15T00:49:54.259Z,26.67
2023-02-15T00:52:25.366Z,23.17
2023-02-15T00:54:56.361Z,21.93
2023-02-15T00:57:27.202Z,23.33
2023-02-15T00:59:58.189Z,27.50
2023-02-15T01:02:29.495Z,25.77
2023-02-15T01:05:00.382Z,24.57
2023-02-15T01:07:31.579Z,25.13
2023-02-15T01:10:02.534Z,25.40
2023-02-15T01:12:33.488Z,23.40
2023-02-15T01:15:04.732Z,25.63
2023-02-15T01:17:35.849Z,21.03
2023-02-15T01:20:08.877Z,23.97
2023-02-15T01:22:39.824Z,23.37
2023-02-15T01:25:11.790Z,21.37
2023-02-15T01:27:42.811Z,26.33
2023-02-15T01:30:15.461Z,25.33
2023-02-15T01:32:46.725Z,26.43
2023-02-15T01:35:17.603Z,23.30
2023-02-15T01:37:48.684Z,23.67
2023-02-15T01:40:20.842Z,24.97
2023-02-15T01:42:55.472Z,20.20
2023-02-15T01:45:29.184Z,20.83
2023-02-15T01:48:03.794Z,23.57
2023-02-15T01:50:37.132Z,28.07
2023-02-15T01:53:11.057Z,23.23
2023-02-15T01:55:44.562Z,30.60
2023-02-15T01:58:15.890Z,22.63
2023-02-15T02:00:48.176Z,28.10
2023-02-15T02:03:19.888Z,26.97
2023-02-15T02:05:51.808Z,26.87
2023-02-15T02:08:22.723Z,22.00
2023-02-15T02:10:53.889Z,28.83
2023-02-15T02:13:25.033Z,23.73
2023-02-15T02:15:59.173Z,21.93
2023-02-15T02:18:37.703Z,22.43
2023-02-15T02:21:46.512Z,25.90
2023-02-15T02:24:23.928Z,28.33
2023-02-15T02:27:19.835Z,25.20
2023-02-15T02:30:43.005Z,28.93
2023-02-15T02:33:29.067Z,25.87
2023-02-15T02:36:06.372Z,22.33
2023-02-15T02:38:42.375Z,25.97
2023-02-15T02:41:17.730Z,22.07
2023-02-15T02:43:52.879Z,25.07
2023-02-15T02:46:27.789Z,24.40
2023-02-15T02:48:59.449Z,25.57
2023-02-15T02:51:30.672Z,25.13
2023-02-15T02:54:04.498Z,24.77
2023-02-15T02:56:38.672Z,28.20
2023-02-15T02:59:12.577Z,29.00
2023-02-15T03:01:46.856Z,27.67
2023-02-15T03:04:20.763Z,24.23
2023-02-15T03:06:54.508Z,24.20
2023-02-15T03:09:30.311Z,23.23
2023-02-15T03:12:01.190Z,23.47
2023-02-15T03:14:32.541Z,24.67
2023-02-15T03:17:05.228Z,23.77
2023-02-15T03:19:38.778Z,20.63
2023-02-15T03:22:12.672Z,22.30
2023-02-15T03:24:46.368Z,26.50
2023-02-15T03:30:00.306Z,19.77
2023-02-15T03:32:36.406Z,20.87
2023-02-15T03:35:09.692Z,23.67
2023-02-15T03:37:43.324Z,20.70
2023-02-15T03:40:34.566Z,24.97
2023-02-15T03:43:10.381Z,21.50
2023-02-15T03:45:45.863Z,16.73
2023-02-15T03:48:17.498Z,18.57
2023-02-15T03:51:06.562Z,20.00
2023-02-15T03:53:37.542Z,18.20
2023-02-15T03:56:08.295Z,18.47
2023-02-15T03:58:56.309Z,16.30
2023-02-15T04:01:48.020Z,18.90
2023-02-15T04:04:21.524Z,17.87
2023-02-15T04:06:52.566Z,16.83
2023-02-15T04:09:41.213Z,26.93
2023-02-15T04:12:12.150Z,22.70
2023-02-15T04:15:00.716Z,19.93
2023-02-15T04:17:32.228Z,22.10
2023-02-15T04:20:21.217Z,19.00
2023-02-15T04:23:10.075Z,20.13
2023-02-15T04:25:41.013Z,25.43
2023-02-15T04:28:30.383Z,21.43
2023-02-15T04:31:01.805Z,20.43
2023-02-15T04:33:32.974Z,21.30
2023-02-15T04:36:04.062Z,20.37
2023-02-15T04:38:35.079Z,23.37
2023-02-15T04:41:06.179Z,21.90
2023-02-15T04:43:37.141Z,20.27
2023-02-15T04:46:08.171Z,18.50
2023-02-15T04:48:39.233Z,19.27
2023-02-15T04:51:10.505Z,20.00
2023-02-15T04:53:41.613Z,18.77
2023-02-15T04:56:12.582Z,21.03
2023-02-15T04:58:43.491Z,20.37
2023-02-15T05:01:14.962Z,21.50
2023-02-15T05:03:45.960Z,20.43
2023-02-15T05:06:17.023Z,21.97
2023-02-15T05:08:48.172Z,22.93
2023-02-15T05:11:19.571Z,23.27
2023-02-15T05:13:50.472Z,27.37
2023-02-15T05:16:21.514Z,22.77
2023-02-15T05:18:52.490Z,27.10
2023-02-15T05:21:23.339Z,26.53
2023-02-15T05:23:54.338Z,27.23
2023-02-15T05:27:04.056Z,29.43
2023-02-15T05:32:11.738Z,24.73
2023-02-15T05:34:42.809Z,23.27
2023-02-15T05:37:13.761Z,26.50
2023-02-15T05:39:44.655Z,24.97
2023-02-15T05:42:15.499Z,25.03
2023-02-15T05:44:46.490Z,30.83
2023-02-15T05:47:17.511Z,31.47
2023-02-15T05:49:48.571Z,32.00
2023-02-15T05:52:19.438Z,37.63
2023-02-15T05:54:50.396Z,32.57
2023-02-15T05:57:21.245Z,31.27
2023-02-15T05:59:52.411Z,33.87
2023-02-15T06:02:23.562Z,30.77
2023-02-15T06:04:54.699Z,29.40
2023-02-15T06:07:25.737Z,26.80
2023-02-15T06:12:33.338Z,28.33
2023-02-15T06:15:04.559Z,28.77
2023-02-15T06:17:35.776Z,35.47
2023-02-15T06:20:09.418Z,34.60
2023-02-15T06:22:40.386Z,35.13
2023-02-15T06:25:12.371Z,36.20
2023-02-15T06:27:44.955Z,33.60
2023-02-15T06:30:17.712Z,29.27
2023-02-15T06:32:48.666Z,38.57
2023-02-15T06:35:20.097Z,31.97
2023-02-15T06:37:51.884Z,33.63
2023-02-15T06:40:23.221Z,39.50
2023-02-15T06:42:54.094Z,35.70
2023-02-15T06:45:25.145Z,28.33
2023-02-15T06:47:56.190Z,30.30
2023-02-15T06:50:27.154Z,30.57
2023-02-15T06:53:00.390Z,41.80
2023-02-15T06:55:31.597Z,37.33
2023-02-15T06:58:02.619Z,34.93
2023-02-15T07:00:34.211Z,33.33
2023-02-15T07:03:05.373Z,32.87
2023-02-15T07:05:37.726Z,34.77
2023-02-15T07:08:08.956Z,35.43
2023-02-15T07:10:40.065Z,32.73
2023-02-15T07:13:11.150Z,31.60
2023-02-15T07:15:41.980Z,27.10
2023-02-15T07:18:12.983Z,34.90
2023-02-15T07:20:43.929Z,34.37
2023-02-15T07:23:14.873Z,30.40
2023-02-15T07:25:45.853Z,31.67
2023-02-15T07:28:17.131Z,28.10
2023-02-15T07:30:48.463Z,31.50
2023-02-15T07:33:25.725Z,30.87
2023-02-15T07:35:58.993Z,32.73
2023-02-15T07:41:11.189Z,33.93
2023-02-15T07:43:44.026Z,34.07
2023-02-15T07:46:17.571Z,29.93
2023-02-15T07:48:49.221Z,29.83
2023-02-15T07:51:20.115Z,25.50
2023-02-15T07:53:52.783Z,28.63
2023-02-15T07:56:23.761Z,29.87
2023-02-15T07:58:56.313Z,29.07
2023-02-15T08:01:29.433Z,29.57
2023-02-15T08:04:01.032Z,30.13
2023-02-15T08:06:34.519Z,25.90
2023-02-15T08:09:08.029Z,25.10
2023-02-15T08:11:41.008Z,28.63
2023-02-15T08:16:53.539Z,26.53
2023-02-15T08:19:26.440Z,29.30
2023-02-15T08:21:58.812Z,28.80
2023-02-15T08:24:31.339Z,23.80
2023-02-15T08:27:05.048Z,22.77
2023-02-15T08:29:36.703Z,27.40
2023-02-15T08:32:10.432Z,19.33
2023-02-15T08:34:43.237Z,24.00
2023-02-15T08:37:14.448Z,23.70
2023-02-15T08:39:46.310Z,24.23
2023-02-15T08:42:17.341Z,21.37
2023-02-15T08:44:50.307Z,23.93
2023-02-15T08:47:20.907Z,27.37
2023-02-15T08:49:52.345Z,26.13
2023-02-15T08:52:23.155Z,25.90
2023-02-15T08:54:54.311Z,32.17
2023-02-15T08:57:25.485Z,31.77
2023-02-15T08:59:57.028Z,34.13
2023-02-15T09:02:28.202Z,28.03
2023-02-15T09:04:59.137Z,27.30
2023-02-15T09:07:30.656Z,21.97
2023-02-15T09:10:01.762Z,23.63
2023-02-15T09:12:32.738Z,24.00
2023-02-15T09:15:03.750Z,21.80
2023-02-15T09:17:34.826Z,27.03
2023-02-15T09:20:07.682Z,28.87
2023-02-15T09:22:38.603Z,26.10
2023-02-15T09:25:10.892Z,30.17
2023-02-15T09:27:42.400Z,30.10
2023-02-15T09:30:16.051Z,28.47
2023-02-15T09:32:47.323Z,26.63
2023-02-15T09:35:18.369Z,32.80
2023-02-15T09:37:49.151Z,30.83
2023-02-15T09:40:21.288Z,33.07
2023-02-15T09:43:09.220Z,39.97
2023-02-15T09:45:48.103Z,37.90
2023-02-15T09:48:40.888Z,40.40
2023-02-15T09:51:40.990Z,29.57
2023-02-15T09:57:01.772Z,35.93
2023-02-15T09:59:37.582Z,36.87
2023-02-15T10:02:17.281Z,46.47
2023-02-15T10:04:58.695Z,46.60
2023-02-15T10:07:38.640Z,39.47
2023-02-15T10:10:17.542Z,39.90
2023-02-15T10:12:57.265Z,48.30
2023-02-15T10:15:36.984Z,44.63
2023-02-15T10:18:17.522Z,52.40
2023-02-15T10:20:54.259Z,47.73
2023-02-15T10:23:35.785Z,46.57
2023-02-15T10:26:14.511Z,43.07
2023-02-15T10:28:49.369Z,44.13
2023-02-15T10:31:26.920Z,41.87
2023-02-15T10:34:09.949Z,39.40
2023-02-15T10:36:49.709Z,40.53
2023-02-15T10:39:25.661Z,39.27
2023-02-15T10:41:59.946Z,39.27
2023-02-15T10:44:39.351Z,38.07
2023-02-15T10:47:32.062Z,39.60
2023-02-15T10:50:28.423Z,39.73
2023-02-15T10:53:12.844Z,41.17
2023-02-15T10:55:51.058Z,41.83
2023-02-15T11:01:06.740Z,34.10
2023-02-15T11:03:57.294Z,36.77
2023-02-15T11:06:29.943Z,37.83
2023-02-15T11:09:04.589Z,35.70
2023-02-15T11:11:40.233Z,41.87
2023-02-15T11:14:15.161Z,39.23
2023-02-15T11:16:48.308Z,33.53
2023-02-15T11:19:22.035Z,35.53
2023-02-15T11:21:56.147Z,40.20
2023-02-15T11:24:31.507Z,33.70
2023-02-15T11:27:05.641Z,37.50
2023-02-15T11:29:39.365Z,36.67
2023-02-15T11:32:18.937Z,35.83
2023-02-15T11:34:53.105Z,43.60
2023-02-15T11:40:05.817Z,36.33
2023-02-15T11:42:37.654Z,40.93
2023-02-15T11:45:15.552Z,37.13
2023-02-15T11:47:46.557Z,37.97
2023-02-15T11:50:22.042Z,34.50
2023-02-15T11:52:53.176Z,37.23
2023-02-15T11:55:44.297Z,35.63
2023-02-15T11:58:20.156Z,31.97
2023-02-15T12:00:53.920Z,32.97
2023-02-15T12:03:29.411Z,28.63
2023-02-15T12:06:04.604Z,31.30
2023-02-15T12:08:39.815Z,31.43
2023-02-15T12:11:13.955Z,31.57
2023-02-15T12:13:59.820Z,30.70
2023-02-15T12:16:33.389Z,29.93
2023-02-15T12:19:04.878Z,32.40
2023-02-15T12:21:38.714Z,33.00
2023-02-15T12:24:16.910Z,28.87
2023-02-15T12:26:50.032Z,27.33
2023-02-15T12:32:01.767Z,30.93
2023-02-15T12:34:36.165Z,26.40
2023-02-15T12:37:13.023Z,26.30
2023-02-15T12:39:51.207Z,27.60
2023-02-15T12:42:23.110Z,28.40
2023-02-15T12:45:03.511Z,27.63
2023-02-15T12:47:36.760Z,29.23
2023-02-15T12:50:21.830Z,26.60
2023-02-15T12:52:53.880Z,25.03
2023-02-15T12:55:28.401Z,29.70
2023-02-15T12:58:19.357Z,25.73
2023-02-15T13:00:50.478Z,26.97
2023-02-15T13:03:25.078Z,28.33
2023-02-15T13:05:58.632Z,28.60
2023-02-15T13:08:33.230Z,23.97
2023-02-15T13:11:07.908Z,26.17
2023-02-15T13:13:41.313Z,22.13
2023-02-15T13:16:14.947Z,22.87
2023-02-15T13:18:48.394Z,33.10
2023-02-15T13:21:22.790Z,25.47
2023-02-15T13:23:58.331Z,22.17
2023-02-15T13:26:32.347Z,17.90
2023-02-15T13:29:06.903Z,19.40
2023-02-15T13:31:38.523Z,24.07
2023-02-15T13:34:14.703Z,21.70
2023-02-15T13:36:51.645Z,17.00
2023-02-15T13:39:28.271Z,16.73
2023-02-15T13:42:05.105Z,13.73
2023-02-15T13:44:51.001Z,15.40
2023-02-15T13:47:26.121Z,16.23
2023-02-15T13:50:07.950Z,20.00
2023-02-15T13:52:42.867Z,19.67
2023-02-15T13:55:31.319Z,14.50
2023-02-15T13:58:19.347Z,15.40
2023-02-15T14:00:54.683Z,14.37
2023-02-15T14:04:16.889Z,15.47
2023-02-15T14:09:37.135Z,14.57
2023-02-15T14:12:34.526Z,15.10
2023-02-15T14:15:23.085Z,15.80
2023-02-15T14:18:00.443Z,18.47
2023-02-15T14:20:37.345Z,13.70
2023-02-15T14:23:11.903Z,14.50
2023-02-15T14:25:46.002Z,14.10
2023-02-15T14:28:19.676Z,13.27
2023-02-15T14:30:53.877Z,15.20
2023-02-15T14:33:36.326Z,14.47
2023-02-15T14:36:27.364Z,17.23
2023-02-15T14:39:09.265Z,12.77
2023-02-15T14:41:43.334Z,15.03
2023-02-15T14:44:17.269Z,14.73
2023-02-15T14:46:53.322Z,15.53
2023-02-15T14:49:26.955Z,12.37
2023-02-15T14:52:06.384Z,14.97
2023-02-15T14:57:40.292Z,16.13
2023-02-15T15:00:33.816Z,13.20
2023-02-15T15:03:06.973Z,12.27
2023-02-15T15:05:41.197Z,10.80
2023-02-15T15:08:24.556Z,12.00
2023-02-15T15:10:55.611Z,11.87
2023-02-15T15:14:01.906Z,11.10
2023-02-15T15:16:54.302Z,12.07
2023-02-15T15:20:12.172Z,11.47
2023-02-15T15:22:44.973Z,9.90
2023-02-15T15:25:35.444Z,12.57
2023-02-15T15:28:07.855Z,11.77
2023-02-15T15:30:55.772Z,11.90
2023-02-15T15:37:01.576Z,14.43
2023-02-15T15:39:54.010Z,11.53
2023-02-15T15:42:32.837Z,13.47
2023-02-15T15:46:02.330Z,10.67
2023-02-15T15:51:18.352Z,7.00
2023-02-15T15:53:53.698Z,6.53
2023-02-15T15:56:27.111Z,9.20
2023-02-15T16:01:42.659Z,8.30
2023-02-15T16:04:16.533Z,9.40
2023-02-15T16:06:47.787Z,6.93
2023-02-15T16:09:22.188Z,10.37
2023-02-15T16:11:55.614Z,7.63
2023-02-15T16:14:31.433Z,9.77
2023-02-15T16:17:04.720Z,10.40
2023-02-15T16:19:38.587Z,9.07
2023-02-15T16:22:12.972Z,10.20
2023-02-15T16:25:08.768Z,7.13
2023-02-15T16:27:42.803Z,8.83
2023-02-15T16:30:29.208Z,10.60
2023-02-15T16:33:09.395Z,10.83
2023-02-15T16:35:43.449Z,7.70
2023-02-15T16:38:14.566Z,7.00
2023-02-15T16:40:54.803Z,6.97
2023-02-15T16:43:28.767Z,8.30
2023-02-15T16:46:03.475Z,9.13
2023-02-15T16:48:37.030Z,6.80
2023-02-15T16:51:08.453Z,7.50
2023-02-15T16:53:40.449Z,12.57
2023-02-15T16:56:11.134Z,9.97
2023-02-15T16:58:44.782Z,8.70
2023-02-15T17:04:03.002Z,9.50
2023-02-15T17:06:34.194Z,9.47
2023-02-15T17:09:11.650Z,10.53
2023-02-15T17:11:44.302Z,10.47
2023-02-15T17:14:21.262Z,12.43
2023-02-15T17:16:55.219Z,8.97
2023-02-15T17:19:28.821Z,7.70
2023-02-15T17:22:02.673Z,10.43
2023-02-15T17:24:39.674Z,9.57
2023-02-15T17:27:16.348Z,7.33
2023-02-15T17:29:52.943Z,8.57
2023-02-15T17:32:26.574Z,10.13
2023-02-15T17:35:10.115Z,9.13
2023-02-15T17:37:50.427Z,9.63
2023-02-15T17:40:40.140Z,8.43
2023-02-15T17:43:11.234Z,7.67
2023-02-15T17:48:24.431Z,7.57
2023-02-15T17:50:55.485Z,9.73
2023-02-15T17:53:27.440Z,10.33
2023-02-15T17:55:59.673Z,9.47
2023-02-15T17:58:30.700Z,11.40
2023-02-15T18:01:22.092Z,8.20
2023-02-15T18:04:12.233Z,9.83
2023-02-15T18:07:02.916Z,12.83
2023-02-15T18:09:51.634Z,8.50
2023-02-15T18:12:25.396Z,10.00
2023-02-15T18:14:57.534Z,10.20
2023-02-15T18:17:31.238Z,12.37
2023-02-15T18:20:04.137Z,9.87
2023-02-15T18:22:35.526Z,8.90
2023-02-15T18:25:06.921Z,10.67
2023-02-15T18:27:38.155Z,10.27
2023-02-15T18:30:13.468Z,8.83
2023-02-15T18:32:46.063Z,15.57
2023-02-15T18:37:57.765Z,31.17
2023-02-15T18:40:30.240Z,16.30
2023-02-15T18:43:01.514Z,18.70
2023-02-15T18:45:33.302Z,10.10
2023-02-15T18:48:05.012Z,10.33
2023-02-15T18:50:38.421Z,11.63
2023-02-15T18:53:14.083Z,21.63
2023-02-15T18:55:47.492Z,16.13
2023-02-15T19:01:01.322Z,17.60
2023-02-15T19:03:32.570Z,14.83
2023-02-15T19:06:05.273Z,11.20
2023-02-15T19:08:36.138Z,9.83
2023-02-15T19:11:07.607Z,9.63
2023-02-15T19:13:38.547Z,13.87
2023-02-15T19:16:11.470Z,9.27
2023-02-15T19:18:44.570Z,10.73
2023-02-15T19:21:18.662Z,12.87
2023-02-15T19:23:53.392Z,11.17
2023-02-15T19:26:30.784Z,10.83
2023-02-15T19:28:57.938Z,10.03
2023-02-15T19:31:29.776Z,12.10
2023-02-15T19:34:01.674Z,11.33
2023-02-15T19:36:33.134Z,9.33
2023-02-15T19:39:04.329Z,7.77
2023-02-15T19:41:36.688Z,10.73
2023-02-15T19:44:10.027Z,12.47
2023-02-15T19:46:42.384Z,12.57
2023-02-15T19:49:14.355Z,9.60
2023-02-15T19:51:45.682Z,9.70
2023-02-15T19:54:30.969Z,10.90
2023-02-15T19:57:03.226Z,10.30
2023-02-15T19:59:35.207Z,11.70
2023-02-15T20:02:07.392Z,10.53
2023-02-15T20:04:38.314Z,10.40
2023-02-15T20:07:12.997Z,12.93
2023-02-15T20:09:44.752Z,10.10
2023-02-15T20:15:01.835Z,11.97
2023-02-15T20:17:33.194Z,13.07
2023-02-15T20:20:04.334Z,13.63
2023-02-15T20:22:35.474Z,12.63
2023-02-15T20:25:07.503Z,13.03
2023-02-15T20:27:40.069Z,17.30
2023-02-15T20:30:18.998Z,12.17
2023-02-15T20:32:50.579Z,14.27
2023-02-15T20:35:23.584Z,13.23
2023-02-15T20:37:56.632Z,16.77
2023-02-15T20:40:30.077Z,27.77
2023-02-15T20:43:01.563Z,31.50
2023-02-15T20:45:33.795Z,16.62
2023-02-15T20:48:05.383Z,16.97
2023-02-15T20:50:37.583Z,15.33
2023-02-15T20:53:11.567Z,15.67
2023-02-15T20:55:42.496Z,15.27
2023-02-15T20:58:22.063Z,14.20
2023-02-15T21:00:53.803Z,15.07
2023-02-15T21:03:28.913Z,21.00
2023-02-15T21:06:00.015Z,18.90
2023-02-15T21:08:31.349Z,18.47
2023-02-15T21:11:02.642Z,16.00
2023-02-15T21:13:35.892Z,23.57
2023-02-15T21:16:07.833Z,22.48
2023-02-15T21:18:40.638Z,20.53
2023-02-15T21:21:35.357Z,22.40
2023-02-15T21:24:07.194Z,20.93
2023-02-15T21:26:42.048Z,19.33
2023-02-15T21:29:17.406Z,18.17
2023-02-15T21:31:49.529Z,18.13
2023-02-15T21:34:20.605Z,17.00
2023-02-15T21:36:51.907Z,16.10
2023-02-15T21:39:25.102Z,13.13
2023-02-15T21:42:15.036Z,17.63
2023-02-15T21:45:03.581Z,13.63
2023-02-15T21:47:53.155Z,12.10
2023-02-15T21:50:43.644Z,13.00
2023-02-15T21:53:17.352Z,13.90
2023-02-15T21:55:48.409Z,16.40
2023-02-15T21:58:22.739Z,15.97
2023-02-15T22:00:55.578Z,16.90
2023-02-15T22:03:27.767Z,18.20
2023-02-15T22:05:58.715Z,21.00
2023-02-15T22:08:29.773Z,23.93
2023-02-15T22:11:00.780Z,23.03
2023-02-15T22:13:34.076Z,15.13
2023-02-15T22:16:06.181Z,17.93
2023-02-15T22:18:37.819Z,20.00
2023-02-15T22:21:10.437Z,25.30
2023-02-15T22:23:41.658Z,15.23
2023-02-15T22:26:17.371Z,17.57
2023-02-15T22:28:48.382Z,12.40
2023-02-15T22:31:22.375Z,13.23
2023-02-15T22:33:55.017Z,13.23
2023-02-15T22:36:28.174Z,19.50
2023-02-15T22:38:59.401Z,15.87
2023-02-15T22:41:32.739Z,15.17
2023-02-15T22:44:03.927Z,12.50
2023-02-15T22:46:38.492Z,17.80
2023-02-15T22:49:12.502Z,12.43
2023-02-15T22:51:43.468Z,12.97
2023-02-15T22:54:14.551Z,13.47
2023-02-15T22:56:48.273Z,13.57
2023-02-15T22:59:23.925Z,10.80
2023-02-15T23:01:55.219Z,15.20
2023-02-15T23:04:28.634Z,13.80
2023-02-15T23:07:01.094Z,17.00
2023-02-15T23:09:32.041Z,16.90
2023-02-15T23:12:02.809Z,16.60
2023-02-15T23:14:36.658Z,20.20
2023-02-15T23:17:08.501Z,20.27
2023-02-15T23:19:39.539Z,19.93
2023-02-15T23:22:14.447Z,19.87
2023-02-15T23:24:47.122Z,19.20
2023-02-15T23:27:37.954Z,20.83
2023-02-15T23:30:14.199Z,19.40
2023-02-15T23:32:45.328Z,19.73
2023-02-15T23:35:18.658Z,16.60
2023-02-15T23:37:49.602Z,20.77
2023-02-15T23:40:40.403Z,21.13
2023-02-15T23:43:15.953Z,20.47
2023-02-15T23:45:47.018Z,21.40
2023-02-15T23:48:32.790Z,29.57
2023-02-15T23:51:04.733Z,20.43
2023-02-15T23:53:36.186Z,23.70
2023-02-15T23:56:10.230Z,21.70
2023-02-15T23:58:43.299Z,21.87
